sensor_id;sensor_type;location;lat;lon;timestamp;pressure;altitude;pressure_sealevel;temperature
42197;BMP280;27866;48.146;17.098;2024-03-23T00:52:14;99126.31;;;16.57
42197;BMP280;27866;48.146;17.098;2024-03-23T00:56:26;99120.28;;;16.56
42197;BMP280;27866;48.146;17.098;2024-03-23T01:00:37;99117.28;;;16.52
42197;BMP280;27866;48.146;17.098;2024-03-23T01:04:49;99114.19;;;16.48
42197;BMP280;27866;48.146;17.098;2024-03-23T01:09:00;99106.84;;;16.52
42197;BMP280;27866;48.146;17.098;2024-03-23T01:13:12;99098.72;;;16.54
42197;BMP280;27866;48.146;17.098;2024-03-23T01:17:24;99100.03;;;16.58
42197;BMP280;27866;48.146;17.098;2024-03-23T01:21:35;99100.06;;;16.66
42197;BMP280;27866;48.146;17.098;2024-03-23T01:25:54;99101.22;;;16.71
42197;BMP280;27866;48.146;17.098;2024-03-23T01:30:06;99092.91;;;16.68
42197;BMP280;27866;48.146;17.098;2024-03-23T01:34:19;99094.19;;;16.64
42197;BMP280;27866;48.146;17.098;2024-03-23T01:38:32;99092.19;;;16.58
42197;BMP280;27866;48.146;17.098;2024-03-23T01:42:54;99087.25;;;16.55
42197;BMP280;27866;48.146;17.098;2024-03-23T01:47:07;99084.31;;;16.51
42197;BMP280;27866;48.146;17.098;2024-03-23T01:51:18;99077.75;;;16.47
42197;BMP280;27866;48.146;17.098;2024-03-23T01:55:31;99077.09;;;16.45
42197;BMP280;27866;48.146;17.098;2024-03-23T01:59:43;99081.66;;;16.43
42197;BMP280;27866;48.146;17.098;2024-03-23T02:03:55;99070.53;;;16.41
42197;BMP280;27866;48.146;17.098;2024-03-23T02:08:07;99070.38;;;16.42
42197;BMP280;27866;48.146;17.098;2024-03-23T02:12:19;99053.88;;;16.42
42197;BMP280;27866;48.146;17.098;2024-03-23T02:16:31;99062.69;;;16.41
42197;BMP280;27866;48.146;17.098;2024-03-23T02:20:43;99053.38;;;16.38
42197;BMP280;27866;48.146;17.098;2024-03-23T02:24:54;99047.19;;;16.39
42197;BMP280;27866;48.146;17.098;2024-03-23T02:29:06;99045.88;;;16.36
42197;BMP280;27866;48.146;17.098;2024-03-23T02:33:18;99038.31;;;16.33
42197;BMP280;27866;48.146;17.098;2024-03-23T02:37:29;99022.16;;;16.29
42197;BMP280;27866;48.146;17.098;2024-03-23T02:41:41;99013.84;;;16.34
42197;BMP280;27866;48.146;17.098;2024-03-23T02:45:53;99015.16;;;16.38
42197;BMP280;27866;48.146;17.098;2024-03-23T02:50:05;99004.75;;;16.45
42197;BMP280;27866;48.146;17.098;2024-03-23T02:54:17;98985.63;;;16.45
42197;BMP280;27866;48.146;17.098;2024-03-23T02:58:28;98984.66;;;16.46
42197;BMP280;27866;48.146;17.098;2024-03-23T03:02:40;98993.78;;;16.42
42197;BMP280;27866;48.146;17.098;2024-03-23T03:06:51;98997.38;;;16.41
42197;BMP280;27866;48.146;17.098;2024-03-23T03:11:03;98987.59;;;16.43
42197;BMP280;27866;48.146;17.098;2024-03-23T03:15:15;98981.25;;;16.45
42197;BMP280;27866;48.146;17.098;2024-03-23T03:19:27;98978.47;;;16.47
42197;BMP280;27866;48.146;17.098;2024-03-23T03:23:38;98978.75;;;16.44
42197;BMP280;27866;48.146;17.098;2024-03-23T03:27:50;98975.47;;;16.42
42197;BMP280;27866;48.146;17.098;2024-03-23T03:32:03;98972.56;;;16.45
42197;BMP280;27866;48.146;17.098;2024-03-23T03:36:15;98962.78;;;16.47
42197;BMP280;27866;48.146;17.098;2024-03-23T03:40:26;98975.47;;;16.42
42197;BMP280;27866;48.146;17.098;2024-03-23T03:44:38;98970.88;;;16.36
42197;BMP280;27866;48.146;17.098;2024-03-23T03:48:51;98969.44;;;16.34
42197;BMP280;27866;48.146;17.098;2024-03-23T03:53:02;98964.88;;;16.36
42197;BMP280;27866;48.146;17.098;2024-03-23T03:57:14;98973.66;;;16.35
42197;BMP280;27866;48.146;17.098;2024-03-23T04:01:25;98971.06;;;16.35
42197;BMP280;27866;48.146;17.098;2024-03-23T04:05:37;98966.16;;;16.32
42197;BMP280;27866;48.146;17.098;2024-03-23T04:09:49;98963.69;;;16.30
42197;BMP280;27866;48.146;17.098;2024-03-23T04:14:01;98964.34;;;16.24
42197;BMP280;27866;48.146;17.098;2024-03-23T04:18:13;98964.47;;;16.23
42197;BMP280;27866;48.146;17.098;2024-03-23T04:22:25;98962.31;;;16.11
42197;BMP280;27866;48.146;17.098;2024-03-23T04:26:43;98960.94;;;15.99
42197;BMP280;27866;48.146;17.098;2024-03-23T04:30:55;98960.91;;;15.92
42197;BMP280;27866;48.146;17.098;2024-03-23T04:35:07;98963.84;;;15.96
42197;BMP280;27866;48.146;17.098;2024-03-23T04:39:22;98967.78;;;16.00
42197;BMP280;27866;48.146;17.098;2024-03-23T04:43:33;98963.56;;;15.99
42197;BMP280;27866;48.146;17.098;2024-03-23T04:47:45;98959.50;;;16.05
42197;BMP280;27866;48.146;17.098;2024-03-23T04:51:57;98952.50;;;16.05
42197;BMP280;27866;48.146;17.098;2024-03-23T04:56:08;98953.81;;;16.09
42197;BMP280;27866;48.146;17.098;2024-03-23T05:00:21;98948.94;;;16.14
42197;BMP280;27866;48.146;17.098;2024-03-23T05:04:32;98933.91;;;16.16
42197;BMP280;27866;48.146;17.098;2024-03-23T05:08:44;98928.69;;;16.16
42197;BMP280;27866;48.146;17.098;2024-03-23T05:12:57;98924.13;;;16.18
42197;BMP280;27866;48.146;17.098;2024-03-23T05:17:08;98923.31;;;16.17
42197;BMP280;27866;48.146;17.098;2024-03-23T05:21:20;98913.69;;;16.18
42197;BMP280;27866;48.146;17.098;2024-03-23T05:25:32;98918.09;;;16.17
42197;BMP280;27866;48.146;17.098;2024-03-23T05:29:43;98904.91;;;16.26
42197;BMP280;27866;48.146;17.098;2024-03-23T05:33:55;98906.88;;;16.32
42197;BMP280;27866;48.146;17.098;2024-03-23T05:38:07;98901.69;;;16.48
42197;BMP280;27866;48.146;17.098;2024-03-23T05:42:19;98893.03;;;16.55
42197;BMP280;27866;48.146;17.098;2024-03-23T05:46:30;98898.13;;;16.64
42197;BMP280;27866;48.146;17.098;2024-03-23T05:50:42;98895.50;;;16.72
42197;BMP280;27866;48.146;17.098;2024-03-23T05:54:54;98896.03;;;16.75
42197;BMP280;27866;48.146;17.098;2024-03-23T05:59:05;98903.25;;;16.81
42197;BMP280;27866;48.146;17.098;2024-03-23T06:03:18;98905.34;;;16.85
42197;BMP280;27866;48.146;17.098;2024-03-23T06:07:29;98901.78;;;16.86
42197;BMP280;27866;48.146;17.098;2024-03-23T06:11:43;98890.31;;;16.87
42197;BMP280;27866;48.146;17.098;2024-03-23T06:15:54;98888.06;;;17.08
42197;BMP280;27866;48.146;17.098;2024-03-23T06:20:06;98883.44;;;17.25
42197;BMP280;27866;48.146;17.098;2024-03-23T06:24:18;98887.69;;;17.34
42197;BMP280;27866;48.146;17.098;2024-03-23T06:28:30;98880.13;;;17.54
42197;BMP280;27866;48.146;17.098;2024-03-23T06:32:41;98880.09;;;17.77
42197;BMP280;27866;48.146;17.098;2024-03-23T06:36:54;98887.81;;;18.00
42197;BMP280;27866;48.146;17.098;2024-03-23T06:41:06;98875.69;;;18.07
42197;BMP280;27866;48.146;17.098;2024-03-23T06:45:18;98871.53;;;18.20
42197;BMP280;27866;48.146;17.098;2024-03-23T06:49:34;98865.09;;;18.52
42197;BMP280;27866;48.146;17.098;2024-03-23T06:53:46;98859.09;;;18.73
42197;BMP280;27866;48.146;17.098;2024-03-23T06:57:58;98868.34;;;18.84
42197;BMP280;27866;48.146;17.098;2024-03-23T07:02:09;98859.88;;;18.96
42197;BMP280;27866;48.146;17.098;2024-03-23T07:06:21;98868.72;;;19.16
42197;BMP280;27866;48.146;17.098;2024-03-23T07:10:33;98861.59;;;19.39
42197;BMP280;27866;48.146;17.098;2024-03-23T07:14:44;98855.13;;;19.49
42197;BMP280;27866;48.146;17.098;2024-03-23T07:18:56;98858.84;;;19.54
42197;BMP280;27866;48.146;17.098;2024-03-23T07:23:08;98862.28;;;19.55
42197;BMP280;27866;48.146;17.098;2024-03-23T07:27:19;98856.22;;;19.54
42197;BMP280;27866;48.146;17.098;2024-03-23T07:31:31;98858.50;;;19.57
42197;BMP280;27866;48.146;17.098;2024-03-23T07:35:43;98854.38;;;19.41
42197;BMP280;27866;48.146;17.098;2024-03-23T07:39:55;98853.22;;;19.43
42197;BMP280;27866;48.146;17.098;2024-03-23T07:44:08;98853.03;;;19.44
42197;BMP280;27866;48.146;17.098;2024-03-23T07:48:21;98835.75;;;19.64
42197;BMP280;27866;48.146;17.098;2024-03-23T07:52:36;98835.91;;;19.90
42197;BMP280;27866;48.146;17.098;2024-03-23T07:56:48;98832.38;;;19.98
42197;BMP280;27866;48.146;17.098;2024-03-23T08:01:13;98821.81;;;20.26
42197;BMP280;27866;48.146;17.098;2024-03-23T08:05:26;98822.09;;;20.51
42197;BMP280;27866;48.146;17.098;2024-03-23T08:09:38;98817.81;;;20.50
42197;BMP280;27866;48.146;17.098;2024-03-23T08:13:50;98814.03;;;20.52
42197;BMP280;27866;48.146;17.098;2024-03-23T08:18:02;98813.66;;;20.75
42197;BMP280;27866;48.146;17.098;2024-03-23T08:22:14;98811.44;;;20.99
42197;BMP280;27866;48.146;17.098;2024-03-23T08:26:25;98794.75;;;21.39
42197;BMP280;27866;48.146;17.098;2024-03-23T08:30:37;98780.34;;;22.14
42197;BMP280;27866;48.146;17.098;2024-03-23T08:34:49;98781.91;;;22.92
42197;BMP280;27866;48.146;17.098;2024-03-23T08:39:00;98771.66;;;23.64
42197;BMP280;27866;48.146;17.098;2024-03-23T08:43:12;98769.13;;;22.95
42197;BMP280;27866;48.146;17.098;2024-03-23T08:47:23;98766.38;;;22.26
42197;BMP280;27866;48.146;17.098;2024-03-23T08:51:35;98766.91;;;21.57
42197;BMP280;27866;48.146;17.098;2024-03-23T08:55:54;98768.47;;;21.19
42197;BMP280;27866;48.146;17.098;2024-03-23T09:00:06;98748.41;;;22.86
42197;BMP280;27866;48.146;17.098;2024-03-23T09:04:20;98722.22;;;25.97
42197;BMP280;27866;48.146;17.098;2024-03-23T09:08:33;98711.41;;;28.70
42197;BMP280;27866;48.146;17.098;2024-03-23T09:12:45;98711.41;;;30.79
42197;BMP280;27866;48.146;17.098;2024-03-23T09:16:57;98702.56;;;32.73
42197;BMP280;27866;48.146;17.098;2024-03-23T09:21:12;98675.22;;;34.52
42197;BMP280;27866;48.146;17.098;2024-03-23T09:25:26;98672.38;;;36.32
42197;BMP280;27866;48.146;17.098;2024-03-23T09:29:38;98660.50;;;36.33
42197;BMP280;27866;48.146;17.098;2024-03-23T09:33:50;98659.16;;;37.46
42197;BMP280;27866;48.146;17.098;2024-03-23T09:38:02;98651.25;;;38.41
42197;BMP280;27866;48.146;17.098;2024-03-23T09:42:14;98641.19;;;39.18
42197;BMP280;27866;48.146;17.098;2024-03-23T09:46:26;98636.94;;;40.47
42197;BMP280;27866;48.146;17.098;2024-03-23T09:50:41;98618.19;;;41.11
42197;BMP280;27866;48.146;17.098;2024-03-23T09:54:52;98624.78;;;40.69
42197;BMP280;27866;48.146;17.098;2024-03-23T09:59:05;98602.09;;;40.98
42197;BMP280;27866;48.146;17.098;2024-03-23T10:03:17;98591.16;;;41.95
42197;BMP280;27866;48.146;17.098;2024-03-23T10:07:29;98580.28;;;42.43
42197;BMP280;27866;48.146;17.098;2024-03-23T10:11:41;98579.59;;;43.28
42197;BMP280;27866;48.146;17.098;2024-03-23T10:15:59;98562.94;;;43.42
42197;BMP280;27866;48.146;17.098;2024-03-23T10:20:11;98557.59;;;43.45
42197;BMP280;27866;48.146;17.098;2024-03-23T10:24:23;98554.47;;;43.23
42197;BMP280;27866;48.146;17.098;2024-03-23T10:28:34;98545.63;;;41.56
42197;BMP280;27866;48.146;17.098;2024-03-23T10:32:47;98539.97;;;40.14
42197;BMP280;27866;48.146;17.098;2024-03-23T10:37:02;98537.25;;;37.60
42197;BMP280;27866;48.146;17.098;2024-03-23T10:41:15;98524.59;;;35.35
42197;BMP280;27866;48.146;17.098;2024-03-23T10:45:27;98515.78;;;33.77
42197;BMP280;27866;48.146;17.098;2024-03-23T10:49:39;98492.84;;;32.13
42197;BMP280;27866;48.146;17.098;2024-03-23T10:53:51;98477.75;;;31.44
42197;BMP280;27866;48.146;17.098;2024-03-23T10:58:04;98477.19;;;30.78
42197;BMP280;27866;48.146;17.098;2024-03-23T11:02:21;98457.91;;;30.36
42197;BMP280;27866;48.146;17.098;2024-03-23T11:06:36;98463.75;;;29.98
42197;BMP280;27866;48.146;17.098;2024-03-23T11:10:48;98455.59;;;29.83
42197;BMP280;27866;48.146;17.098;2024-03-23T11:15:11;98451.19;;;29.98
42197;BMP280;27866;48.146;17.098;2024-03-23T11:19:36;98446.75;;;29.78
42197;BMP280;27866;48.146;17.098;2024-03-23T11:23:48;98448.03;;;30.82
42197;BMP280;27866;48.146;17.098;2024-03-23T11:28:12;98449.81;;;31.16
42197;BMP280;27866;48.146;17.098;2024-03-23T11:32:24;98437.53;;;32.94
42197;BMP280;27866;48.146;17.098;2024-03-23T11:36:36;98425.41;;;34.78
42197;BMP280;27866;48.146;17.098;2024-03-23T11:40:51;98419.03;;;37.31
42197;BMP280;27866;48.146;17.098;2024-03-23T11:45:08;98416.25;;;39.56
42197;BMP280;27866;48.146;17.098;2024-03-23T11:53:36;98416.63;;;42.68
42197;BMP280;27866;48.146;17.098;2024-03-23T11:57:47;98409.25;;;43.61
42197;BMP280;27866;48.146;17.098;2024-03-23T12:02:05;98404.56;;;44.38
42197;BMP280;27866;48.146;17.098;2024-03-23T12:06:20;98396.66;;;44.48
42197;BMP280;27866;48.146;17.098;2024-03-23T12:10:32;98399.75;;;44.20
42197;BMP280;27866;48.146;17.098;2024-03-23T12:14:45;98390.28;;;42.95
42197;BMP280;27866;48.146;17.098;2024-03-23T12:19:05;98389.59;;;43.32
42197;BMP280;27866;48.146;17.098;2024-03-23T12:23:17;98379.16;;;44.22
42197;BMP280;27866;48.146;17.098;2024-03-23T12:27:29;98376.09;;;43.86
42197;BMP280;27866;48.146;17.098;2024-03-23T12:31:41;98363.56;;;44.23
42197;BMP280;27866;48.146;17.098;2024-03-23T12:35:53;98347.56;;;43.57
42197;BMP280;27866;48.146;17.098;2024-03-23T12:40:05;98339.66;;;42.70
42197;BMP280;27866;48.146;17.098;2024-03-23T12:44:18;98344.03;;;43.56
42197;BMP280;27866;48.146;17.098;2024-03-23T12:48:30;98339.81;;;42.31
42197;BMP280;27866;48.146;17.098;2024-03-23T12:52:43;98332.66;;;40.96
42197;BMP280;27866;48.146;17.098;2024-03-23T12:56:54;98329.59;;;40.61
42197;BMP280;27866;48.146;17.098;2024-03-23T13:01:07;98329.03;;;40.48
42197;BMP280;27866;48.146;17.098;2024-03-23T13:05:19;98335.34;;;40.15
42197;BMP280;27866;48.146;17.098;2024-03-23T13:09:31;98332.72;;;40.79
42197;BMP280;27866;48.146;17.098;2024-03-23T13:13:42;98320.84;;;41.60
42197;BMP280;27866;48.146;17.098;2024-03-23T13:17:54;98319.59;;;41.49
42197;BMP280;27866;48.146;17.098;2024-03-23T13:22:06;98309.88;;;42.42
42197;BMP280;27866;48.146;17.098;2024-03-23T13:26:18;98304.19;;;41.93
42197;BMP280;27866;48.146;17.098;2024-03-23T13:30:29;98309.16;;;41.39
42197;BMP280;27866;48.146;17.098;2024-03-23T13:34:41;98318.94;;;41.60
42197;BMP280;27866;48.146;17.098;2024-03-23T13:38:53;98323.63;;;41.71
42197;BMP280;27866;48.146;17.098;2024-03-23T13:43:04;98336.72;;;40.82
42197;BMP280;27866;48.146;17.098;2024-03-23T13:47:16;98338.34;;;36.52
42197;BMP280;27866;48.146;17.098;2024-03-23T13:51:28;98353.22;;;33.05
42197;BMP280;27866;48.146;17.098;2024-03-23T13:55:47;98384.53;;;31.17
42197;BMP280;27866;48.146;17.098;2024-03-23T14:00:01;98487.31;;;29.75
42197;BMP280;27866;48.146;17.098;2024-03-23T14:04:24;98520.09;;;27.76
42197;BMP280;27866;48.146;17.098;2024-03-23T14:08:37;98559.97;;;26.11
42197;BMP280;27866;48.146;17.098;2024-03-23T14:12:53;98577.50;;;24.50
42197;BMP280;27866;48.146;17.098;2024-03-23T14:17:05;98575.59;;;23.73
42197;BMP280;27866;48.146;17.098;2024-03-23T14:21:16;98577.59;;;24.14
42197;BMP280;27866;48.146;17.098;2024-03-23T14:25:28;98582.44;;;22.95
42197;BMP280;27866;48.146;17.098;2024-03-23T14:29:40;98560.66;;;22.26
42197;BMP280;27866;48.146;17.098;2024-03-23T14:33:52;98568.50;;;21.63
42197;BMP280;27866;48.146;17.098;2024-03-23T14:38:04;98587.63;;;21.19
42197;BMP280;27866;48.146;17.098;2024-03-23T14:42:15;98560.06;;;21.16
42197;BMP280;27866;48.146;17.098;2024-03-23T14:46:27;98571.25;;;21.30
42197;BMP280;27866;48.146;17.098;2024-03-23T14:50:39;98566.59;;;20.87
42197;BMP280;27866;48.146;17.098;2024-03-23T14:54:51;98574.84;;;20.84
42197;BMP280;27866;48.146;17.098;2024-03-23T14:59:02;98588.09;;;20.63
42197;BMP280;27866;48.146;17.098;2024-03-23T15:03:14;98611.28;;;20.47
42197;BMP280;27866;48.146;17.098;2024-03-23T15:07:27;98603.09;;;20.16
42197;BMP280;27866;48.146;17.098;2024-03-23T15:11:39;98611.81;;;20.16
42197;BMP280;27866;48.146;17.098;2024-03-23T15:15:51;98607.03;;;19.79
42197;BMP280;27866;48.146;17.098;2024-03-23T15:20:04;98620.44;;;19.36
42197;BMP280;27866;48.146;17.098;2024-03-23T15:24:17;98614.09;;;18.96
42197;BMP280;27866;48.146;17.098;2024-03-23T15:28:30;98628.84;;;18.69
42197;BMP280;27866;48.146;17.098;2024-03-23T15:33:14;98621.25;;;18.38
42197;BMP280;27866;48.146;17.098;2024-03-23T15:37:25;98632.78;;;18.15
42197;BMP280;27866;48.146;17.098;2024-03-23T15:41:37;98652.72;;;17.81
42197;BMP280;27866;48.146;17.098;2024-03-23T15:45:58;98660.53;;;17.29
42197;BMP280;27866;48.146;17.098;2024-03-23T15:50:11;98669.84;;;16.95
42197;BMP280;27866;48.146;17.098;2024-03-23T15:54:23;98719.09;;;16.68
42197;BMP280;27866;48.146;17.098;2024-03-23T15:58:35;98711.75;;;16.09
42197;BMP280;27866;48.146;17.098;2024-03-23T16:02:47;98706.59;;;15.54
42197;BMP280;27866;48.146;17.098;2024-03-23T16:06:59;98701.59;;;15.20
42197;BMP280;27866;48.146;17.098;2024-03-23T16:11:11;98717.00;;;14.81
42197;BMP280;27866;48.146;17.098;2024-03-23T16:15:22;98704.09;;;14.48
42197;BMP280;27866;48.146;17.098;2024-03-23T16:19:34;98688.06;;;14.35
42197;BMP280;27866;48.146;17.098;2024-03-23T16:23:46;98650.88;;;14.25
42197;BMP280;27866;48.146;17.098;2024-03-23T16:27:58;98622.06;;;14.27
42197;BMP280;27866;48.146;17.098;2024-03-23T16:32:09;98612.34;;;14.29
42197;BMP280;27866;48.146;17.098;2024-03-23T16:36:21;98620.13;;;14.29
42197;BMP280;27866;48.146;17.098;2024-03-23T16:40:33;98622.59;;;14.30
42197;BMP280;27866;48.146;17.098;2024-03-23T16:44:46;98630.78;;;14.35
42197;BMP280;27866;48.146;17.098;2024-03-23T16:48:57;98618.63;;;14.43
42197;BMP280;27866;48.146;17.098;2024-03-23T16:53:09;98607.53;;;14.41
42197;BMP280;27866;48.146;17.098;2024-03-23T16:57:20;98619.78;;;14.49
42197;BMP280;27866;48.146;17.098;2024-03-23T17:01:32;98636.69;;;14.45
42197;BMP280;27866;48.146;17.098;2024-03-23T17:05:44;98598.41;;;14.45
42197;BMP280;27866;48.146;17.098;2024-03-23T17:09:56;98631.47;;;14.45
42197;BMP280;27866;48.146;17.098;2024-03-23T17:14:07;98665.50;;;14.43
42197;BMP280;27866;48.146;17.098;2024-03-23T17:18:19;98677.22;;;14.47
42197;BMP280;27866;48.146;17.098;2024-03-23T17:22:31;98670.19;;;14.40
42197;BMP280;27866;48.146;17.098;2024-03-23T17:26:43;98681.56;;;14.39
42197;BMP280;27866;48.146;17.098;2024-03-23T17:30:54;98692.75;;;14.32
42197;BMP280;27866;48.146;17.098;2024-03-23T17:35:06;98689.31;;;14.31
42197;BMP280;27866;48.146;17.098;2024-03-23T17:39:18;98716.53;;;14.36
42197;BMP280;27866;48.146;17.098;2024-03-23T17:43:30;98751.56;;;14.42
42197;BMP280;27866;48.146;17.098;2024-03-23T17:47:42;98765.25;;;14.44
42197;BMP280;27866;48.146;17.098;2024-03-23T17:51:54;98787.75;;;14.45
42197;BMP280;27866;48.146;17.098;2024-03-23T17:56:06;98787.00;;;14.35
42197;BMP280;27866;48.146;17.098;2024-03-23T18:00:18;98781.13;;;14.33
42197;BMP280;27866;48.146;17.098;2024-03-23T18:04:31;98782.41;;;14.29
42197;BMP280;27866;48.146;17.098;2024-03-23T18:08:42;98790.63;;;14.42
42197;BMP280;27866;48.146;17.098;2024-03-23T18:12:54;98793.03;;;14.52
42197;BMP280;27866;48.146;17.098;2024-03-23T18:17:06;98786.81;;;14.53
42197;BMP280;27866;48.146;17.098;2024-03-23T18:21:18;98772.03;;;14.54
42197;BMP280;27866;48.146;17.098;2024-03-23T18:25:31;98744.38;;;14.61
42197;BMP280;27866;48.146;17.098;2024-03-23T18:29:43;98742.50;;;14.70
42197;BMP280;27866;48.146;17.098;2024-03-23T18:33:55;98763.81;;;14.83
42197;BMP280;27866;48.146;17.098;2024-03-23T18:38:08;98773.81;;;14.95
42197;BMP280;27866;48.146;17.098;2024-03-23T18:42:23;98761.53;;;15.12
42197;BMP280;27866;48.146;17.098;2024-03-23T18:46:35;98765.94;;;15.20
42197;BMP280;27866;48.146;17.098;2024-03-23T18:50:47;98770.38;;;15.27
42197;BMP280;27866;48.146;17.098;2024-03-23T18:54:58;98780.81;;;15.27
42197;BMP280;27866;48.146;17.098;2024-03-23T18:59:10;98791.28;;;15.35
42197;BMP280;27866;48.146;17.098;2024-03-23T19:03:25;98801.44;;;15.37
42197;BMP280;27866;48.146;17.098;2024-03-23T19:07:37;98813.19;;;15.41
42197;BMP280;27866;48.146;17.098;2024-03-23T19:11:49;98806.81;;;15.44
42197;BMP280;27866;48.146;17.098;2024-03-23T19:16:02;98826.31;;;15.32
42197;BMP280;27866;48.146;17.098;2024-03-23T19:20:14;98837.06;;;15.29
42197;BMP280;27866;48.146;17.098;2024-03-23T19:24:25;98833.41;;;15.39
42197;BMP280;27866;48.146;17.098;2024-03-23T19:28:37;98839.41;;;15.40
42197;BMP280;27866;48.146;17.098;2024-03-23T19:32:49;98841.34;;;15.38
42197;BMP280;27866;48.146;17.098;2024-03-23T19:37:00;98827.84;;;15.42
42197;BMP280;27866;48.146;17.098;2024-03-23T19:41:12;98837.50;;;15.50
42197;BMP280;27866;48.146;17.098;2024-03-23T19:45:24;98872.94;;;15.60
42197;BMP280;27866;48.146;17.098;2024-03-23T19:49:36;98906.91;;;15.67
42197;BMP280;27866;48.146;17.098;2024-03-23T19:53:51;98918.47;;;15.65
42197;BMP280;27866;48.146;17.098;2024-03-23T19:58:03;98893.81;;;15.60
42197;BMP280;27866;48.146;17.098;2024-03-23T20:02:15;98878.78;;;15.54
42197;BMP280;27866;48.146;17.098;2024-03-23T20:06:27;98857.91;;;15.54
42197;BMP280;27866;48.146;17.098;2024-03-23T20:10:46;98826.59;;;15.54
42197;BMP280;27866;48.146;17.098;2024-03-23T20:14:58;98840.81;;;15.59
42197;BMP280;27866;48.146;17.098;2024-03-23T20:19:10;98824.56;;;15.40
42197;BMP280;27866;48.146;17.098;2024-03-23T20:23:22;98830.94;;;15.13
42197;BMP280;27866;48.146;17.098;2024-03-23T20:27:34;98833.03;;;15.10
42197;BMP280;27866;48.146;17.098;2024-03-23T20:31:45;98823.47;;;15.18
42197;BMP280;27866;48.146;17.098;2024-03-23T20:35:57;98826.88;;;15.11
42197;BMP280;27866;48.146;17.098;2024-03-23T20:40:11;98848.34;;;15.05
42197;BMP280;27866;48.146;17.098;2024-03-23T20:44:22;98860.72;;;15.03
42197;BMP280;27866;48.146;17.098;2024-03-23T20:48:34;98883.19;;;15.04
42197;BMP280;27866;48.146;17.098;2024-03-23T20:52:48;98901.28;;;15.06
42197;BMP280;27866;48.146;17.098;2024-03-23T20:57:00;98914.63;;;15.03
42197;BMP280;27866;48.146;17.098;2024-03-23T21:01:11;98912.78;;;14.95
42197;BMP280;27866;48.146;17.098;2024-03-23T21:05:23;98917.94;;;14.88
42197;BMP280;27866;48.146;17.098;2024-03-23T21:09:35;98920.09;;;14.92
42197;BMP280;27866;48.146;17.098;2024-03-23T21:13:46;98940.88;;;14.84
42197;BMP280;27866;48.146;17.098;2024-03-23T21:18:00;98934.22;;;14.73
42197;BMP280;27866;48.146;17.098;2024-03-23T21:22:11;98929.00;;;14.73
42197;BMP280;27866;48.146;17.098;2024-03-23T21:26:23;98934.22;;;14.73
42197;BMP280;27866;48.146;17.098;2024-03-23T21:30:36;98944.63;;;14.73
42197;BMP280;27866;48.146;17.098;2024-03-23T21:34:48;98956.53;;;14.58
42197;BMP280;27866;48.146;17.098;2024-03-23T21:39:02;98956.00;;;14.55
42197;BMP280;27866;48.146;17.098;2024-03-23T21:43:16;98952.03;;;14.51
42197;BMP280;27866;48.146;17.098;2024-03-23T21:47:28;98958.09;;;14.51
42197;BMP280;27866;48.146;17.098;2024-03-23T21:51:39;98955.13;;;14.47
42197;BMP280;27866;48.146;17.098;2024-03-23T21:55:51;98937.84;;;14.46
42197;BMP280;27866;48.146;17.098;2024-03-23T22:00:03;98928.59;;;14.34
42197;BMP280;27866;48.146;17.098;2024-03-23T22:04:24;98896.44;;;14.26
42197;BMP280;27866;48.146;17.098;2024-03-23T22:08:35;98848.09;;;14.23
42197;BMP280;27866;48.146;17.098;2024-03-23T22:12:47;98828.59;;;14.10
42197;BMP280;27866;48.146;17.098;2024-03-23T22:16:59;98891.50;;;14.06
42197;BMP280;27866;48.146;17.098;2024-03-23T22:21:11;98894.88;;;14.16
42197;BMP280;27866;48.146;17.098;2024-03-23T22:25:24;98886.97;;;14.08
42197;BMP280;27866;48.146;17.098;2024-03-23T22:29:36;98871.41;;;13.99
42197;BMP280;27866;48.146;17.098;2024-03-23T22:33:48;98875.41;;;13.93
42197;BMP280;27866;48.146;17.098;2024-03-23T22:37:59;98880.81;;;13.83
42197;BMP280;27866;48.146;17.098;2024-03-23T22:42:13;98876.88;;;13.70
42197;BMP280;27866;48.146;17.098;2024-03-23T22:46:25;98865.16;;;13.57
42197;BMP280;27866;48.146;17.098;2024-03-23T22:50:43;98857.56;;;13.46
42197;BMP280;27866;48.146;17.098;2024-03-23T22:54:55;98839.44;;;13.28
42197;BMP280;27866;48.146;17.098;2024-03-23T22:59:08;98825.00;;;13.07
42197;BMP280;27866;48.146;17.098;2024-03-23T23:03:21;98823.94;;;12.91
42197;BMP280;27866;48.146;17.098;2024-03-23T23:07:32;98818.94;;;12.80
42197;BMP280;27866;48.146;17.098;2024-03-23T23:11:44;98775.19;;;12.67
42197;BMP280;27866;48.146;17.098;2024-03-23T23:15:57;98777.97;;;12.56
42197;BMP280;27866;48.146;17.098;2024-03-23T23:20:09;98841.22;;;12.55
42197;BMP280;27866;48.146;17.098;2024-03-23T23:24:24;98836.84;;;12.65
42197;BMP280;27866;48.146;17.098;2024-03-23T23:28:36;98828.09;;;12.66
42197;BMP280;27866;48.146;17.098;2024-03-23T23:32:48;98822.88;;;12.66
42197;BMP280;27866;48.146;17.098;2024-03-23T23:36:59;98815.78;;;12.68
42197;BMP280;27866;48.146;17.098;2024-03-23T23:41:11;98816.59;;;12.68
42197;BMP280;27866;48.146;17.098;2024-03-23T23:45:23;98818.38;;;12.68
42197;BMP280;27866;48.146;17.098;2024-03-23T23:49:34;98804.06;;;12.55
42197;BMP280;27866;48.146;17.098;2024-03-23T23:53:46;98796.53;;;12.43
42197;BMP280;27866;48.146;17.098;2024-03-23T23:57:58;98801.16;;;12.39
